createdAt,value
2017-08-27T07:51:50.883Z,19936
2017-08-27T07:52:31.501Z,19840
2017-08-27T07:53:12.092Z,19776
2017-08-27T07:53:52.676Z,20128
2017-08-27T07:54:33.307Z,21120
2017-08-27T07:55:14.211Z,23680
2017-08-27T07:55:54.796Z,37312
2017-08-27T07:56:35.547Z,44064
2017-08-27T07:57:16.134Z,43424
2017-08-27T07:57:57.036Z,44416
2017-08-27T07:58:37.623Z,46656
2017-08-27T07:59:18.280Z,48096
2017-08-27T07:59:58.970Z,48032
2017-08-27T08:00:39.670Z,47456
2017-08-27T08:01:20.314Z,46848
2017-08-27T08:02:01.030Z,47680
2017-08-27T08:02:41.823Z,47392
2017-08-27T08:03:22.484Z,45024
2017-08-27T08:04:03.064Z,47744
2017-08-27T08:04:43.761Z,45952
2017-08-27T08:05:24.349Z,46304
2017-08-27T08:06:04.935Z,47552
2017-08-27T08:06:45.531Z,49728
2017-08-27T08:07:26.127Z,48544
2017-08-27T08:08:06.718Z,47040
2017-08-27T08:08:47.303Z,52832
2017-08-27T08:09:27.892Z,45952
2017-08-27T08:10:08.488Z,51744
2017-08-27T08:10:49.077Z,50592
2017-08-27T08:11:29.671Z,30720
2017-08-27T08:12:10.265Z,30624
2017-08-27T08:12:50.874Z,33824
2017-08-27T08:13:31.451Z,39552
2017-08-27T08:14:12.035Z,56864
2017-08-27T08:14:52.620Z,56832
2017-08-27T08:15:33.217Z,39520
2017-08-27T08:16:13.809Z,60192
2017-08-27T08:16:54.401Z,41088
2017-08-27T08:17:34.987Z,56608
2017-08-27T08:18:15.591Z,55680
2017-08-27T08:18:56.191Z,50016
2017-08-27T08:19:36.789Z,24352
2017-08-27T08:20:17.376Z,21984
2017-08-27T08:20:57.970Z,24608
2017-08-27T08:21:38.565Z,17952
2017-08-27T08:22:19.150Z,16480
2017-08-27T08:22:59.750Z,15680
2017-08-27T08:23:40.340Z,14996
2017-08-27T08:24:20.931Z,14152
2017-08-27T08:25:01.528Z,13232
2017-08-27T08:25:42.129Z,12240
2017-08-27T08:26:22.723Z,11216
2017-08-27T08:27:03.306Z,10348
2017-08-27T08:27:43.908Z,9528
2017-08-27T08:28:24.498Z,8804
2017-08-27T08:29:05.089Z,8316
2017-08-27T08:29:45.679Z,8068
2017-08-27T08:30:26.270Z,8244
2017-08-27T08:31:06.858Z,8852
2017-08-27T08:31:47.442Z,9832
2017-08-27T08:32:28.044Z,11360
2017-08-27T08:33:08.638Z,12764
2017-08-27T08:33:49.225Z,13576
2017-08-27T08:34:29.803Z,13888
2017-08-27T08:35:10.396Z,14080
2017-08-27T08:35:50.976Z,14036
2017-08-27T08:36:31.583Z,13956
2017-08-27T08:37:12.159Z,14564
2017-08-27T08:37:53.552Z,17024
2017-08-27T08:38:34.677Z,19360
2017-08-27T08:39:15.277Z,22112
2017-08-27T08:39:55.850Z,24928
2017-08-27T08:40:36.448Z,25024
2017-08-27T08:41:17.065Z,24448
2017-08-27T08:41:58.912Z,23904
2017-08-27T08:42:40.057Z,32736
2017-08-27T08:43:21.587Z,20448
2017-08-27T08:45:53.635Z,53184
2017-08-27T08:46:35.381Z,57696
2017-08-27T08:47:16.567Z,35168
2017-08-27T08:47:59.562Z,22720
2017-08-27T08:48:40.161Z,22816
2017-08-27T08:49:20.727Z,21632
2017-08-27T08:50:02.820Z,18080
2017-08-27T08:50:45.090Z,17728
2017-08-27T08:51:27.619Z,17536
2017-08-27T08:52:08.680Z,17280
2017-08-27T08:52:49.991Z,16608
2017-08-27T08:53:31.113Z,15292
2017-08-27T08:54:12.403Z,13880
2017-08-27T08:54:53.435Z,12320
2017-08-27T08:55:34.382Z,11356
2017-08-27T08:56:15.258Z,10668
2017-08-27T08:56:55.862Z,10444
2017-08-27T08:57:36.482Z,10572
2017-08-27T08:58:17.983Z,10536
2017-08-27T08:58:58.342Z,10908
2017-08-27T08:59:39.043Z,11596
2017-08-27T09:00:20.396Z,12552
2017-08-27T09:01:00.957Z,13536
2017-08-27T09:01:41.814Z,14312
2017-08-27T09:02:22.559Z,14896
2017-08-27T09:04:40.802Z,18688
2017-08-27T09:05:22.265Z,20736
2017-08-27T09:06:02.857Z,22560
2017-08-27T09:08:36.016Z,25120
2017-08-27T09:09:17.398Z,25152
2017-08-27T09:09:58.007Z,25472
2017-08-27T09:10:43.425Z,24864
2017-08-27T09:11:24.025Z,24320
2017-08-27T09:12:09.679Z,23936
2017-08-27T09:12:50.259Z,23936
2017-08-27T09:13:30.823Z,24192
2017-08-27T09:14:11.397Z,23168
2017-08-27T09:14:51.987Z,21792
2017-08-27T09:15:32.558Z,20640
2017-08-27T09:16:13.134Z,19776
2017-08-27T09:16:54.442Z,20768
2017-08-27T09:17:35.166Z,22912
2017-08-27T09:18:15.771Z,28608
2017-08-27T09:18:56.254Z,27296
2017-08-27T09:19:40.150Z,25760
2017-08-27T09:20:20.768Z,30368
2017-08-27T09:21:03.046Z,35872
2017-08-27T09:21:43.666Z,46784
2017-08-27T09:22:24.927Z,58624
2017-08-27T09:23:05.514Z,58528
2017-08-27T09:23:46.085Z,61792
2017-08-27T09:24:26.677Z,65792
2017-08-27T09:25:08.941Z,64064
2017-08-27T09:25:50.447Z,73920
2017-08-27T09:26:31.033Z,77696
2017-08-27T09:27:12.306Z,77376
2017-08-27T09:27:53.561Z,77280
2017-08-27T09:28:39.928Z,68672
2017-08-27T09:29:20.511Z,80896
2017-08-27T09:30:01.077Z,77056
2017-08-27T09:30:41.693Z,76352
2017-08-27T09:31:22.241Z,85952
2017-08-27T09:32:02.822Z,90432
2017-08-27T09:32:43.466Z,58304
2017-08-27T09:33:24.055Z,78784
2017-08-27T09:34:04.628Z,89408
2017-08-27T09:34:45.222Z,86336
2017-08-27T09:35:25.849Z,88384
2017-08-27T09:36:06.638Z,86880
2017-08-27T09:36:47.215Z,70144
2017-08-27T09:37:27.806Z,49376
2017-08-27T09:38:08.400Z,36672
2017-08-27T09:38:49.199Z,33216
2017-08-27T09:39:29.947Z,28192
2017-08-27T09:40:10.555Z,30432
2017-08-27T09:40:51.163Z,35360
2017-08-27T09:41:31.764Z,43552
2017-08-27T09:42:13.625Z,43104
2017-08-27T09:42:54.478Z,34272
2017-08-27T09:43:35.421Z,31552
2017-08-27T09:44:16.089Z,26720
2017-08-27T09:44:56.831Z,25088
2017-08-27T09:45:37.410Z,25632
2017-08-27T09:46:18.336Z,29664
2017-08-27T09:46:59.180Z,92288
2017-08-27T09:47:39.896Z,88928
2017-08-27T09:48:20.775Z,69440
2017-08-27T09:49:01.527Z,44672
2017-08-27T09:49:42.321Z,39104
2017-08-27T09:50:22.889Z,49888
2017-08-27T09:51:03.629Z,41376
2017-08-27T09:51:44.127Z,48384
2017-08-27T09:52:25.096Z,69760
2017-08-27T09:53:05.985Z,67520
2017-08-27T09:53:46.812Z,72768
2017-08-27T09:54:27.263Z,88736
2017-08-27T09:55:08.855Z,79328
2017-08-27T09:55:50.706Z,90656
2017-08-27T09:56:32.485Z,92128
2017-08-27T09:57:13.426Z,92128
2017-08-27T09:57:54.003Z,79680
2017-08-27T09:58:34.664Z,52992
2017-08-27T09:59:15.260Z,65024
2017-08-27T09:59:55.862Z,96544
2017-08-27T10:00:36.458Z,78016
2017-08-27T10:01:17.057Z,49120
2017-08-27T10:01:58.473Z,97856
2017-08-27T10:02:39.058Z,101152
2017-08-27T10:03:19.638Z,97728
2017-08-27T10:04:00.234Z,99648
2017-08-27T10:04:41.191Z,96384
2017-08-27T10:05:21.774Z,47360
2017-08-27T10:06:02.364Z,69440
2017-08-27T10:06:42.933Z,39712
2017-08-27T10:07:23.522Z,44896
2017-08-27T10:08:04.102Z,47136
2017-08-27T10:08:44.694Z,51456
2017-08-27T10:09:26.086Z,44320
2017-08-27T10:10:06.688Z,59392
2017-08-27T10:10:47.287Z,94496
2017-08-27T10:11:27.882Z,94528
2017-08-27T10:12:08.461Z,94240
2017-08-27T10:12:49.981Z,94240
2017-08-27T10:13:30.576Z,96160
2017-08-27T10:14:11.169Z,95744
2017-08-27T10:14:51.770Z,95616
2017-08-27T10:15:32.383Z,94624
2017-08-27T10:16:12.961Z,91712
2017-08-27T10:16:53.760Z,79456
2017-08-27T10:17:34.360Z,89056
2017-08-27T10:18:14.947Z,91072
2017-08-27T10:18:55.570Z,90144
2017-08-27T10:19:36.161Z,89216
2017-08-27T10:20:16.729Z,64864
2017-08-27T10:20:57.314Z,74080
2017-08-27T10:21:37.924Z,74208
2017-08-27T10:22:18.511Z,68864
2017-08-27T10:22:59.100Z,80480
2017-08-27T10:23:39.682Z,82592
2017-08-27T10:24:20.287Z,87488
2017-08-27T10:25:00.858Z,94432
2017-08-27T10:25:41.441Z,78080
2017-08-27T10:26:22.024Z,100800
2017-08-27T10:27:02.602Z,90496
2017-08-27T10:27:43.183Z,64768
2017-08-27T10:28:23.784Z,38208
2017-08-27T10:29:04.622Z,35360
2017-08-27T10:29:45.231Z,33472
2017-08-27T10:30:25.835Z,32736
2017-08-27T10:31:06.498Z,30688
2017-08-27T10:31:47.087Z,28608
2017-08-27T10:32:27.665Z,26752
2017-08-27T10:33:08.268Z,25440
2017-08-27T10:33:48.856Z,25600
2017-08-27T10:34:29.449Z,27008
2017-08-27T10:35:10.172Z,25504
2017-08-27T10:35:50.778Z,24064
2017-08-27T10:36:32.102Z,21696
2017-08-27T10:37:12.705Z,20288
2017-08-27T10:37:53.358Z,18560
2017-08-27T10:38:33.939Z,17088
2017-08-27T10:39:14.568Z,16384
2017-08-27T10:39:55.335Z,16096
2017-08-27T10:40:36.207Z,15904
2017-08-27T10:41:16.956Z,16064
2017-08-27T10:41:57.540Z,16608
2017-08-27T10:42:38.244Z,17632
2017-08-27T10:43:18.836Z,16224
2017-08-27T10:43:59.437Z,14440
2017-08-27T10:44:40.000Z,12756
2017-08-27T10:45:21.076Z,11024
2017-08-27T10:46:01.869Z,9432
2017-08-27T10:46:42.457Z,8144
2017-08-27T10:47:23.398Z,7012
2017-08-27T10:48:04.911Z,6032
2017-08-27T10:48:46.069Z,5216
2017-08-27T10:49:27.569Z,4560
2017-08-27T10:50:08.123Z,4044
2017-08-27T10:50:48.785Z,3652
2017-08-27T10:51:29.373Z,3512
2017-08-27T10:52:10.011Z,3728
2017-08-27T10:52:51.513Z,4456
2017-08-27T10:53:33.032Z,5708
2017-08-27T10:54:13.771Z,7392
2017-08-27T10:54:54.320Z,9628
2017-08-27T10:55:35.870Z,12756
2017-08-27T10:56:16.554Z,15468
2017-08-27T10:56:57.148Z,19744
2017-08-27T10:57:37.732Z,22208
2017-08-27T10:58:18.411Z,24512
2017-08-27T10:58:59.227Z,25760
2017-08-27T10:59:39.882Z,25856
2017-08-27T11:00:20.527Z,25664
2017-08-27T11:01:02.174Z,25280
2017-08-27T11:01:42.836Z,28704
2017-08-27T11:02:23.442Z,29312
2017-08-27T11:03:04.005Z,29504
2017-08-27T11:03:45.004Z,29440
2017-08-27T11:04:25.736Z,27936
2017-08-27T11:05:06.369Z,25696
2017-08-27T11:05:47.334Z,23744
2017-08-27T11:06:28.054Z,22208
2017-08-27T11:07:08.625Z,21376
2017-08-27T11:07:50.020Z,20544
2017-08-27T11:08:30.606Z,20480
2017-08-27T11:09:11.180Z,20128
2017-08-27T11:09:52.290Z,20128
2017-08-27T11:10:32.848Z,19968
2017-08-27T11:11:14.503Z,20256
2017-08-27T11:11:55.327Z,21376
2017-08-27T11:12:35.921Z,21472
2017-08-27T11:13:16.658Z,20544
2017-08-27T11:13:57.239Z,19456
2017-08-27T11:14:37.970Z,18336
2017-08-27T11:15:18.734Z,17408
2017-08-27T11:16:00.287Z,16672
2017-08-27T11:16:40.956Z,16256
2017-08-27T11:17:21.680Z,16000
2017-08-27T11:18:02.675Z,15260
2017-08-27T11:18:43.878Z,15268
2017-08-27T11:19:24.591Z,15544
2017-08-27T11:20:05.223Z,15508
2017-08-27T11:20:46.086Z,15176
2017-08-27T11:21:26.823Z,15400
2017-08-27T11:22:08.340Z,15152
2017-08-27T11:22:48.897Z,14416
2017-08-27T11:23:29.604Z,13544
2017-08-27T11:24:10.952Z,13244
2017-08-27T11:24:51.710Z,13452
2017-08-27T11:25:32.458Z,13900
2017-08-27T11:26:13.378Z,14144
2017-08-27T11:26:54.291Z,14592
2017-08-27T11:27:36.249Z,15144
2017-08-27T11:28:17.874Z,15560
2017-08-27T11:28:59.148Z,15632
2017-08-27T11:29:39.891Z,16000
2017-08-27T11:30:20.252Z,16352
2017-08-27T11:31:03.217Z,17056
2017-08-27T11:31:44.837Z,17920
2017-08-27T11:32:25.726Z,18688
2017-08-27T11:33:06.344Z,19008
2017-08-27T11:33:47.279Z,18816
2017-08-27T11:34:28.401Z,19008
2017-08-27T11:35:08.959Z,18080
2017-08-27T11:35:49.906Z,16160
2017-08-27T11:36:32.876Z,13780
2017-08-27T11:37:14.428Z,12060
2017-08-27T11:37:55.344Z,10712
2017-08-27T11:38:36.827Z,9756
2017-08-27T11:39:19.971Z,9408
2017-08-27T11:40:01.650Z,9640
2017-08-27T11:40:43.145Z,10384
2017-08-27T11:41:24.012Z,11692
2017-08-27T11:42:04.917Z,13720
2017-08-27T11:42:45.576Z,15904
2017-08-27T11:43:26.318Z,16544
2017-08-27T11:44:07.338Z,16864
2017-08-27T11:44:48.493Z,17472
2017-08-27T11:45:29.103Z,16992
2017-08-27T11:46:09.757Z,14972
2017-08-27T11:46:50.446Z,13904
2017-08-27T11:47:31.173Z,13816
2017-08-27T11:48:11.698Z,13044
2017-08-27T11:48:52.345Z,11972
2017-08-27T11:49:33.898Z,11732
2017-08-27T11:50:14.460Z,11804
2017-08-27T11:50:55.042Z,11712
2017-08-27T11:51:35.680Z,11264
2017-08-27T11:52:16.450Z,10564
2017-08-27T11:52:57.225Z,10352
2017-08-27T11:53:37.837Z,10344
2017-08-27T11:54:18.384Z,10200
2017-08-27T11:54:59.075Z,10120
2017-08-27T11:55:39.966Z,10004
2017-08-27T11:57:37.933Z,10108
2017-08-27T11:58:18.639Z,10216
2017-08-27T11:58:59.592Z,10612
2017-08-27T11:59:41.113Z,10820
2017-08-27T12:00:22.028Z,10956
2017-08-27T12:01:03.970Z,11152
2017-08-27T12:01:46.633Z,11180
2017-08-27T12:02:27.856Z,11092
2017-08-27T12:03:08.461Z,10952
2017-08-27T12:03:48.977Z,10924
2017-08-27T12:04:29.548Z,11184
2017-08-27T12:05:10.116Z,11208
2017-08-27T12:05:50.686Z,10904
2017-08-27T12:06:31.327Z,10684
2017-08-27T12:07:11.850Z,10456
2017-08-27T12:07:52.352Z,10252
2017-08-27T12:08:32.956Z,9516
2017-08-27T12:09:13.581Z,8848
2017-08-27T12:09:54.185Z,8424
2017-08-27T12:10:34.914Z,8488
2017-08-27T12:11:15.513Z,8516
2017-08-27T12:11:56.040Z,8572
2017-08-27T12:12:36.588Z,9272
2017-08-27T12:13:17.134Z,8872
2017-08-27T12:13:57.709Z,8368
2017-08-27T12:14:38.279Z,8136
2017-08-27T12:15:18.833Z,8564
2017-08-27T12:15:59.419Z,9536
2017-08-27T12:16:40.355Z,10184
2017-08-27T12:17:20.993Z,10896
2017-08-27T12:18:01.505Z,11908
2017-08-27T12:18:42.086Z,12672
2017-08-27T12:19:22.653Z,12676
2017-08-27T12:20:03.186Z,11868
2017-08-27T12:20:43.760Z,12140
2017-08-27T12:21:24.355Z,13432
2017-08-27T12:22:04.897Z,13628
2017-08-27T12:22:45.465Z,12140
2017-08-27T12:23:26.037Z,10604
2017-08-27T12:24:06.611Z,9584
2017-08-27T12:24:47.174Z,8856
2017-08-27T12:25:27.738Z,8400
2017-08-27T12:26:08.323Z,8304
2017-08-27T12:26:48.877Z,8572
2017-08-27T12:27:29.448Z,8728
2017-08-27T12:28:10.022Z,8404
2017-08-27T12:28:50.596Z,8168
2017-08-27T12:29:31.140Z,7996
2017-08-27T12:30:11.720Z,7732
2017-08-27T12:30:52.285Z,7448
2017-08-27T12:31:32.854Z,7404
2017-08-27T12:32:13.445Z,7424
2017-08-27T12:32:54.030Z,7524
2017-08-27T12:33:34.560Z,7564
2017-08-27T12:34:15.143Z,7708
2017-08-27T12:34:55.695Z,7732
2017-08-27T12:35:36.258Z,7260
2017-08-27T12:36:16.878Z,7056
2017-08-27T12:36:57.394Z,7540
2017-08-27T12:37:37.956Z,9064
2017-08-27T12:38:18.543Z,9856
2017-08-27T12:38:59.100Z,9208
2017-08-27T12:39:39.669Z,8608
2017-08-27T12:40:20.232Z,8088
2017-08-27T12:41:00.799Z,7544
2017-08-27T12:41:41.376Z,7496
2017-08-27T12:42:21.955Z,8236
2017-08-27T12:43:02.527Z,8908
2017-08-27T12:43:43.103Z,9320
2017-08-27T12:44:23.694Z,9784
2017-08-27T12:45:04.251Z,10468
2017-08-27T12:45:44.809Z,10860
2017-08-27T12:46:25.382Z,11180
2017-08-27T12:47:05.947Z,11212
2017-08-27T12:47:46.518Z,11148
2017-08-27T12:48:27.090Z,11136
2017-08-27T12:49:07.630Z,11068
2017-08-27T12:49:48.206Z,11120
2017-08-27T12:50:28.779Z,11120
2017-08-27T12:51:09.356Z,11368
2017-08-27T12:51:49.939Z,11916
2017-08-27T12:52:30.520Z,12500
2017-08-27T12:53:11.071Z,13052
2017-08-27T12:53:51.645Z,13660
2017-08-27T12:54:32.201Z,14264
2017-08-27T12:55:12.743Z,14944
2017-08-27T12:55:53.318Z,16064
2017-08-27T12:56:33.881Z,17376
2017-08-27T12:57:14.481Z,18624
2017-08-27T12:57:54.998Z,19328
2017-08-27T12:58:35.576Z,19840
2017-08-27T12:59:16.139Z,19872
2017-08-27T12:59:56.704Z,19424
2017-08-27T13:00:37.271Z,18176
2017-08-27T13:01:17.814Z,16768
2017-08-27T13:01:58.364Z,15292
2017-08-27T13:02:38.942Z,13972
2017-08-27T13:03:19.479Z,12884
2017-08-27T13:04:00.063Z,11888
2017-08-27T13:04:40.641Z,11296
2017-08-27T13:05:21.144Z,11168
2017-08-27T13:06:01.737Z,11176
2017-08-27T13:06:42.282Z,11360
2017-08-27T13:07:22.804Z,11432
2017-08-27T13:08:03.403Z,11320
2017-08-27T13:08:43.939Z,11028
2017-08-27T13:09:24.564Z,10684
2017-08-27T13:10:05.107Z,10236
2017-08-27T13:10:45.654Z,9768
2017-08-27T13:11:26.225Z,9456
2017-08-27T13:12:06.824Z,9132
2017-08-27T13:12:47.354Z,8972
2017-08-27T13:13:27.914Z,9088
2017-08-27T13:14:08.484Z,9168
2017-08-27T13:14:49.053Z,9392
2017-08-27T13:15:29.624Z,9500
2017-08-27T13:16:10.217Z,9664
2017-08-27T13:16:50.732Z,9820
2017-08-27T13:17:31.318Z,9756
2017-08-27T13:18:11.879Z,9276
2017-08-27T13:18:52.510Z,8588
2017-08-27T13:19:33.018Z,7996
2017-08-27T13:20:13.594Z,7604
2017-08-27T13:20:54.155Z,7356
2017-08-27T13:21:34.735Z,7108
2017-08-27T13:22:15.327Z,6932
2017-08-27T13:22:55.870Z,6888
2017-08-27T13:23:36.436Z,6764
2017-08-27T13:24:17.017Z,6576
2017-08-27T13:24:57.554Z,6384
2017-08-27T13:25:38.139Z,6192
2017-08-27T13:26:18.704Z,6108
2017-08-27T13:26:59.275Z,6196
2017-08-27T13:27:39.831Z,6388
2017-08-27T13:28:20.397Z,6720
2017-08-27T13:29:00.989Z,7140
2017-08-27T13:29:41.535Z,7608
2017-08-27T13:30:22.100Z,8056
2017-08-27T13:31:02.672Z,8572
2017-08-27T13:31:43.246Z,9048
2017-08-27T13:32:23.802Z,9432
2017-08-27T13:33:04.402Z,9744
2017-08-27T13:33:44.940Z,10048
2017-08-27T13:34:25.546Z,10224
2017-08-27T13:35:06.126Z,10376
2017-08-27T13:35:46.690Z,10544
2017-08-27T13:36:27.255Z,10668
2017-08-27T13:37:07.806Z,10740
2017-08-27T13:37:48.374Z,10736
2017-08-27T13:38:28.953Z,10652
2017-08-27T13:39:09.523Z,10448
2017-08-27T13:39:50.054Z,10128
2017-08-27T13:40:30.634Z,9756
2017-08-27T13:41:11.191Z,9348
2017-08-27T13:41:51.770Z,8960
2017-08-27T13:42:32.318Z,8652
2017-08-27T13:43:12.888Z,8428
2017-08-27T13:43:53.449Z,8320
2017-08-27T13:44:34.044Z,8328
2017-08-27T13:45:14.632Z,8416
2017-08-27T13:45:55.163Z,8516
2017-08-27T13:46:35.737Z,8584
2017-08-27T13:47:16.318Z,8596
2017-08-27T13:47:56.918Z,8496
2017-08-27T13:48:37.466Z,8316
2017-08-27T13:49:18.108Z,8108
2017-08-27T13:49:58.618Z,7908
2017-08-27T13:50:39.173Z,7708
2017-08-27T13:51:19.735Z,7432
2017-08-27T13:52:00.291Z,7108
2017-08-27T13:52:40.843Z,6768
2017-08-27T13:53:21.428Z,6456
2017-08-27T13:54:01.995Z,6140
2017-08-27T13:54:42.549Z,5820
2017-08-27T13:55:23.111Z,5540
2017-08-27T13:56:03.711Z,5456
2017-08-27T13:56:44.254Z,5532
2017-08-27T13:57:24.849Z,5684
2017-08-27T13:58:05.401Z,5804
2017-08-27T13:58:45.981Z,5868
2017-08-27T13:59:26.532Z,5916
2017-08-27T14:00:07.100Z,6056
2017-08-27T14:00:47.662Z,6064
2017-08-27T14:01:28.207Z,6132
2017-08-27T14:02:08.777Z,6184
2017-08-27T14:02:49.365Z,6220
2017-08-27T14:03:29.949Z,6252
2017-08-27T14:04:10.519Z,6236
2017-08-27T14:04:51.081Z,6204
2017-08-27T14:05:31.631Z,6204
2017-08-27T14:06:12.194Z,6224
2017-08-27T14:06:52.778Z,6284
2017-08-27T14:07:33.346Z,6364
2017-08-27T14:08:14.642Z,6420
2017-08-27T14:08:55.192Z,6460
2017-08-27T14:09:35.745Z,6512
2017-08-27T14:10:16.317Z,6552
2017-08-27T14:10:56.894Z,6572
2017-08-27T14:11:37.459Z,6520
2017-08-27T14:12:18.041Z,6348
2017-08-27T14:12:58.618Z,6092
2017-08-27T14:13:39.191Z,5796
2017-08-27T14:14:19.758Z,5472
2017-08-27T14:15:00.348Z,5096
2017-08-27T14:15:40.873Z,4716
2017-08-27T14:16:21.436Z,4440
2017-08-27T14:17:02.051Z,4320
2017-08-27T14:17:42.598Z,4292
2017-08-27T14:18:23.145Z,4300
2017-08-27T14:19:03.742Z,4252
2017-08-27T14:19:44.294Z,4256
2017-08-27T14:20:24.895Z,4336
2017-08-27T14:21:05.452Z,4540
2017-08-27T14:21:46.019Z,4564
2017-08-27T14:22:26.563Z,4408
2017-08-27T14:23:07.137Z,4444
2017-08-27T14:23:47.677Z,4708
2017-08-27T14:24:28.227Z,5036
2017-08-27T14:25:08.784Z,5352
2017-08-27T14:25:49.366Z,5624
2017-08-27T14:26:29.957Z,5868
2017-08-27T14:27:10.453Z,6124
2017-08-27T14:27:51.012Z,6364
2017-08-27T14:28:31.588Z,6552
2017-08-27T14:29:12.140Z,6720
2017-08-27T14:29:52.710Z,6912
2017-08-27T14:30:33.283Z,7252
2017-08-27T14:31:13.825Z,7820
2017-08-27T14:31:54.378Z,8472
2017-08-27T14:32:34.945Z,9296
2017-08-27T14:33:15.523Z,10212
2017-08-27T14:33:56.087Z,11024
2017-08-27T14:34:36.669Z,11608
2017-08-27T14:35:17.255Z,12084
2017-08-27T14:35:57.837Z,12392
2017-08-27T14:36:38.404Z,12564
2017-08-27T14:37:19.009Z,12616
2017-08-27T14:37:59.563Z,12680
2017-08-27T14:38:40.101Z,12700
2017-08-27T14:39:20.646Z,12504
2017-08-27T14:40:01.221Z,12264
2017-08-27T14:40:41.787Z,12160
2017-08-27T14:41:22.360Z,12216
2017-08-27T14:42:02.919Z,12264
2017-08-27T14:42:43.450Z,12340
2017-08-27T14:43:24.000Z,12112
2017-08-27T14:44:04.567Z,11864
2017-08-27T14:44:45.155Z,11480
2017-08-27T14:45:25.701Z,11172
2017-08-27T14:46:06.264Z,10960
2017-08-27T14:46:46.809Z,10728
2017-08-27T14:47:27.372Z,10280
2017-08-27T14:48:07.962Z,9820
2017-08-27T14:48:48.533Z,9336
2017-08-27T14:49:29.106Z,8900
2017-08-27T14:50:09.680Z,8484
2017-08-27T14:50:50.221Z,8056
2017-08-27T14:51:30.774Z,7728
2017-08-27T14:52:11.346Z,7480
2017-08-27T14:52:51.893Z,7280
2017-08-27T14:53:32.446Z,7100
2017-08-27T14:54:13.027Z,6944
2017-08-27T14:54:53.573Z,6852
2017-08-27T14:55:34.157Z,6864
2017-08-27T14:56:14.747Z,6976
2017-08-27T14:56:55.305Z,7148
2017-08-27T14:57:35.871Z,7312
2017-08-27T14:58:16.423Z,7484
2017-08-27T14:58:56.995Z,7660
2017-08-27T14:59:37.555Z,7828
2017-08-27T15:00:18.157Z,7992
2017-08-27T15:00:58.705Z,8160
2017-08-27T15:01:39.266Z,8308
2017-08-27T15:02:19.808Z,8440
2017-08-27T15:03:00.378Z,8568
2017-08-27T15:03:40.952Z,8700
2017-08-27T15:04:21.531Z,8832
2017-08-27T15:05:02.101Z,8900
2017-08-27T15:05:42.639Z,8920
2017-08-27T15:06:23.225Z,8900
2017-08-27T15:07:03.769Z,8852
2017-08-27T15:07:44.344Z,8724
2017-08-27T15:08:24.944Z,8536
2017-08-27T15:09:05.496Z,8332
2017-08-27T15:09:46.056Z,8112
2017-08-27T15:10:26.622Z,7888
2017-08-27T15:11:07.203Z,7652
2017-08-27T15:11:47.783Z,7420
2017-08-27T15:12:28.347Z,7240
2017-08-27T15:13:08.913Z,7128
2017-08-27T15:13:49.481Z,7072
2017-08-27T15:14:30.098Z,7052
2017-08-27T15:15:10.634Z,7076
2017-08-27T15:15:51.215Z,7112
2017-08-27T15:16:31.781Z,7128
2017-08-27T15:17:12.369Z,7156
2017-08-27T15:17:52.924Z,7160
2017-08-27T15:18:33.503Z,7152
2017-08-27T15:19:16.715Z,7124
2017-08-27T15:19:57.257Z,7056
2017-08-27T15:20:37.825Z,6940
2017-08-27T15:21:18.389Z,6808
2017-08-27T15:21:58.966Z,6696
2017-08-27T15:22:39.552Z,6604
2017-08-27T15:23:20.107Z,6548
2017-08-27T15:24:00.760Z,6496
2017-08-27T15:24:41.251Z,6440
2017-08-27T15:25:21.820Z,6364
2017-08-27T15:26:02.392Z,6292
2017-08-27T15:26:42.965Z,6256
2017-08-27T15:27:23.559Z,6256
2017-08-27T15:28:04.123Z,6220
2017-08-27T15:28:44.698Z,6180
2017-08-27T15:29:25.255Z,6184
2017-08-27T15:30:05.824Z,6156
2017-08-27T15:30:46.370Z,6168
2017-08-27T15:31:26.941Z,6180
2017-08-27T15:32:07.499Z,6196
2017-08-27T15:32:48.054Z,6216
2017-08-27T15:33:28.619Z,6232
2017-08-27T15:34:09.208Z,6236
2017-08-27T15:34:49.775Z,6244
2017-08-27T15:35:30.355Z,6220
2017-08-27T15:36:10.942Z,6160
2017-08-27T15:36:51.505Z,6040
2017-08-27T15:37:32.061Z,5880
2017-08-27T15:38:12.624Z,5708
2017-08-27T15:38:53.163Z,5564
2017-08-27T15:39:33.750Z,5456
2017-08-27T15:40:14.310Z,5364
2017-08-27T15:40:54.880Z,5300
2017-08-27T15:41:35.455Z,5256
2017-08-27T15:42:16.016Z,5212
2017-08-27T15:42:56.583Z,5156
2017-08-27T15:43:37.152Z,5092
2017-08-27T15:44:17.703Z,5020
2017-08-27T15:44:58.305Z,4968
2017-08-27T15:45:38.870Z,4908
2017-08-27T15:46:19.433Z,4880
2017-08-27T15:46:59.999Z,4864
2017-08-27T15:47:40.582Z,4820
2017-08-27T15:48:21.132Z,4800
2017-08-27T15:49:01.675Z,4788
2017-08-27T15:49:42.269Z,4772
2017-08-27T15:50:22.834Z,4760
2017-08-27T15:51:03.434Z,4716
2017-08-27T15:51:43.998Z,4656
2017-08-27T15:52:24.589Z,4568
2017-08-27T15:53:05.154Z,4500
2017-08-27T15:53:45.718Z,4436
2017-08-27T15:54:26.294Z,4380
2017-08-27T15:55:06.880Z,4320
2017-08-27T15:55:47.450Z,4260
2017-08-27T15:56:28.012Z,4192
2017-08-27T15:57:08.578Z,4124
2017-08-27T15:57:49.140Z,4032
2017-08-27T15:58:29.709Z,3924
2017-08-27T15:59:10.281Z,3800
2017-08-27T15:59:50.835Z,3632
2017-08-27T16:00:31.426Z,3456
2017-08-27T16:01:12.048Z,3328
2017-08-27T16:01:52.557Z,3268
2017-08-27T16:02:33.149Z,3224
2017-08-27T16:03:13.762Z,3188
2017-08-27T16:03:54.320Z,3160
2017-08-27T16:04:34.883Z,3164
2017-08-27T16:05:15.462Z,3200
2017-08-27T16:05:56.027Z,3256
2017-08-27T16:06:36.594Z,3316
2017-08-27T16:07:17.202Z,3400
2017-08-27T16:07:57.774Z,3508
2017-08-27T16:08:38.344Z,3644
2017-08-27T16:09:18.923Z,3788
2017-08-27T16:09:59.478Z,3940
2017-08-27T16:10:40.071Z,4056
2017-08-27T16:11:20.636Z,4112
2017-08-27T16:12:01.213Z,4100
2017-08-27T16:12:41.773Z,4068
2017-08-27T16:13:22.356Z,4008
2017-08-27T16:14:02.904Z,3972
2017-08-27T16:14:43.480Z,4012
2017-08-27T16:15:24.029Z,4148
2017-08-27T16:16:04.635Z,4420
2017-08-27T16:16:45.197Z,4836
2017-08-27T16:17:25.790Z,5336
2017-08-27T16:18:06.350Z,5740
2017-08-27T16:18:46.916Z,5948
2017-08-27T16:19:27.494Z,6012
2017-08-27T16:20:08.068Z,6016
2017-08-27T16:20:48.618Z,5908
2017-08-27T16:21:29.167Z,5704
2017-08-27T16:22:09.733Z,5408
2017-08-27T16:22:50.317Z,5164
2017-08-27T16:23:30.877Z,5020
2017-08-27T16:24:11.459Z,4872
2017-08-27T16:24:52.014Z,4700
2017-08-27T16:25:32.593Z,4508
2017-08-27T16:26:13.151Z,4316
2017-08-27T16:26:53.724Z,4156
2017-08-27T16:27:34.278Z,4012
2017-08-27T16:28:14.821Z,3876
2017-08-27T16:28:55.392Z,3764
2017-08-27T16:29:35.943Z,3688
2017-08-27T16:30:16.497Z,3612
2017-08-27T16:30:57.075Z,3548
2017-08-27T16:31:37.640Z,3488
2017-08-27T16:32:18.170Z,3428
2017-08-27T16:32:58.740Z,3388
2017-08-27T16:33:39.292Z,3376
2017-08-27T16:34:19.869Z,3400
2017-08-27T16:35:00.447Z,3460
2017-08-27T16:35:40.997Z,3536
2017-08-27T16:36:21.573Z,3564
2017-08-27T16:37:02.125Z,3528
2017-08-27T16:37:42.698Z,3456
2017-08-27T16:38:23.219Z,3396
2017-08-27T16:39:03.786Z,3360
2017-08-27T16:39:44.344Z,3280
2017-08-27T16:40:24.916Z,3176
2017-08-27T16:41:05.495Z,3096
2017-08-27T16:41:46.046Z,3088
2017-08-27T16:42:26.610Z,3064
2017-08-27T16:43:07.173Z,2980
2017-08-27T16:43:47.717Z,2884
2017-08-27T16:44:28.291Z,2820
2017-08-27T16:45:08.831Z,2748
2017-08-27T16:45:49.421Z,2676
2017-08-27T16:46:29.987Z,2592
2017-08-27T16:47:10.515Z,2540
2017-08-27T16:47:51.101Z,2516
2017-08-27T16:48:31.664Z,2504
2017-08-27T16:49:12.230Z,2476
2017-08-27T16:49:52.803Z,2468
2017-08-27T16:50:33.382Z,2480